createdAt,value
2018-12-14T00:00:34.284Z,25.60
2018-12-14T00:01:34.260Z,29.30
2018-12-14T00:02:34.250Z,27.50
2018-12-14T00:03:34.217Z,30.10
2018-12-14T00:04:34.191Z,27.90
2018-12-14T00:05:34.165Z,29.40
2018-12-14T00:06:34.140Z,27.50
2018-12-14T00:07:34.119Z,27.70
2018-12-14T00:08:34.096Z,28.70
2018-12-14T00:09:34.072Z,31.30
2018-12-14T00:10:34.051Z,28.20
2018-12-14T00:11:34.023Z,29.90
2018-12-14T00:12:33.997Z,28.70
2018-12-14T00:13:33.976Z,30.40
2018-12-14T00:14:33.950Z,28.30
2018-12-14T00:15:33.923Z,31.20
2018-12-14T00:16:33.901Z,28.50
2018-12-14T00:17:33.883Z,29.80
2018-12-14T00:18:33.857Z,28.30
2018-12-14T00:19:33.834Z,30.70
2018-12-14T00:20:33.804Z,29.70
2018-12-14T00:21:33.782Z,29.90
2018-12-14T00:22:33.762Z,31.30
2018-12-14T00:23:33.732Z,28.30
2018-12-14T00:24:33.712Z,29.20
2018-12-14T00:25:33.695Z,29.30
2018-12-14T00:26:33.666Z,29.40
2018-12-14T00:27:33.643Z,28.30
2018-12-14T00:28:33.616Z,31.50
2018-12-14T00:29:33.599Z,30.10
2018-12-14T00:30:33.567Z,28.50
2018-12-14T00:31:33.549Z,30.80
2018-12-14T00:32:33.520Z,31.70
2018-12-14T00:33:33.498Z,30.10
2018-12-14T00:34:33.472Z,31.90
2018-12-14T00:35:33.449Z,29.80
2018-12-14T00:36:33.425Z,31.40
2018-12-14T00:37:33.411Z,31.00
2018-12-14T00:38:33.377Z,33.60
2018-12-14T00:39:33.353Z,33.00
2018-12-14T00:40:33.327Z,31.60
2018-12-14T00:41:33.311Z,30.90
2018-12-14T00:42:33.281Z,33.10
2018-12-14T00:43:33.252Z,35.60
2018-12-14T00:44:33.230Z,33.30
2018-12-14T00:45:33.205Z,34.20
2018-12-14T00:46:33.180Z,32.00
2018-12-14T00:47:33.158Z,31.10
2018-12-14T00:48:33.134Z,34.70
2018-12-14T00:49:33.112Z,33.40
2018-12-14T00:50:33.087Z,35.40
2018-12-14T00:51:33.065Z,37.30
2018-12-14T00:52:33.040Z,36.40
2018-12-14T00:53:33.013Z,33.70
2018-12-14T00:54:32.989Z,34.50
2018-12-14T00:55:32.965Z,32.60
2018-12-14T00:56:32.941Z,34.20
2018-12-14T00:57:32.917Z,36.40
2018-12-14T00:58:32.892Z,34.30
2018-12-14T00:59:32.868Z,34.70
2018-12-14T01:00:32.845Z,33.10
2018-12-14T01:01:32.821Z,34.70
2018-12-14T01:02:32.805Z,35.80
2018-12-14T01:03:32.777Z,35.20
2018-12-14T01:04:32.749Z,33.70
2018-12-14T01:05:32.722Z,37.20
2018-12-14T01:06:32.701Z,32.20
2018-12-14T01:07:32.677Z,35.70
2018-12-14T01:08:32.651Z,35.90
2018-12-14T01:09:32.629Z,35.00
2018-12-14T01:10:32.610Z,36.30
2018-12-14T01:11:32.580Z,36.20
2018-12-14T01:12:32.555Z,37.50
2018-12-14T01:13:32.535Z,36.40
2018-12-14T01:14:32.506Z,33.70
2018-12-14T01:15:32.493Z,37.60
2018-12-14T01:16:32.511Z,34.70
2018-12-14T01:17:32.438Z,34.50
2018-12-14T01:18:32.410Z,32.70
2018-12-14T01:19:32.387Z,35.50
2018-12-14T01:20:32.362Z,35.50
2018-12-14T01:21:32.337Z,33.30
2018-12-14T01:22:32.317Z,35.20
2018-12-14T01:23:32.292Z,35.40
2018-12-14T01:24:32.269Z,35.70
2018-12-14T01:25:32.249Z,35.00
2018-12-14T01:26:32.223Z,35.00
2018-12-14T01:27:32.192Z,34.70
2018-12-14T01:28:32.172Z,33.30
2018-12-14T01:29:32.143Z,36.10
2018-12-14T01:30:32.129Z,34.30
2018-12-14T01:31:32.096Z,33.40
2018-12-14T01:32:32.079Z,35.40
2018-12-14T01:33:32.047Z,32.00
2018-12-14T01:34:32.022Z,34.50
2018-12-14T01:35:32.003Z,35.40
2018-12-14T01:36:31.975Z,35.20
2018-12-14T01:37:31.949Z,35.60
2018-12-14T01:38:31.926Z,32.60
2018-12-14T01:39:31.901Z,36.30
2018-12-14T01:40:31.883Z,35.50
2018-12-14T01:41:31.852Z,33.80
2018-12-14T01:42:31.834Z,33.40
2018-12-14T01:43:31.805Z,35.90
2018-12-14T01:44:31.783Z,35.60
2018-12-14T01:45:31.764Z,33.20
2018-12-14T01:46:31.731Z,33.90
2018-12-14T01:47:31.712Z,36.60
2018-12-14T01:48:31.685Z,33.50
2018-12-14T01:49:31.659Z,34.90
2018-12-14T01:50:31.634Z,36.70
2018-12-14T01:51:31.611Z,33.40
2018-12-14T01:52:31.586Z,35.70
2018-12-14T01:53:31.563Z,32.10
2018-12-14T01:54:31.537Z,34.10
2018-12-14T01:55:31.511Z,35.10
2018-12-14T01:56:31.489Z,38.80
2018-12-14T01:57:31.465Z,35.50
2018-12-14T01:58:31.451Z,35.20
2018-12-14T01:59:31.423Z,36.50
2018-12-14T02:00:31.391Z,35.80
2018-12-14T02:01:31.370Z,35.20
2018-12-14T02:02:31.341Z,34.50
2018-12-14T02:03:31.323Z,35.60
2018-12-14T02:04:31.297Z,36.00
2018-12-14T02:05:31.273Z,35.40
2018-12-14T02:06:31.245Z,34.80
2018-12-14T02:07:31.228Z,36.10
2018-12-14T02:08:31.200Z,36.50
2018-12-14T02:09:31.172Z,34.60
2018-12-14T02:10:31.148Z,36.40
2018-12-14T02:11:31.126Z,38.10
2018-12-14T02:12:31.142Z,36.00
2018-12-14T02:13:31.077Z,34.30
2018-12-14T02:14:31.052Z,36.50
2018-12-14T02:15:31.030Z,36.80
2018-12-14T02:16:31.005Z,35.50
2018-12-14T02:17:30.978Z,36.90
2018-12-14T02:18:30.956Z,38.70
2018-12-14T02:19:30.938Z,37.30
2018-12-14T02:20:30.914Z,37.30
2018-12-14T02:21:30.879Z,36.90
2018-12-14T02:22:30.855Z,38.10
2018-12-14T02:23:30.837Z,38.40
2018-12-14T02:24:30.806Z,38.00
2018-12-14T02:25:30.783Z,37.90
2018-12-14T02:26:30.775Z,38.50
2018-12-14T02:27:30.739Z,38.90
2018-12-14T02:28:30.710Z,41.20
2018-12-14T02:29:30.686Z,37.70
2018-12-14T02:30:30.662Z,37.90
2018-12-14T02:31:30.638Z,39.00
2018-12-14T02:32:30.613Z,39.90
2018-12-14T02:33:30.587Z,39.00
2018-12-14T02:34:30.570Z,39.30
2018-12-14T02:35:30.549Z,43.20
2018-12-14T02:36:30.520Z,37.80
2018-12-14T02:37:30.493Z,42.20
2018-12-14T02:38:30.474Z,39.60
2018-12-14T02:39:30.451Z,38.00
2018-12-14T02:40:30.419Z,41.30
2018-12-14T02:41:30.394Z,42.60
2018-12-14T02:42:30.370Z,40.00
2018-12-14T02:43:30.346Z,38.80
2018-12-14T02:44:30.319Z,40.10
2018-12-14T02:45:30.302Z,40.30
2018-12-14T02:46:30.270Z,41.30
2018-12-14T02:47:30.252Z,40.80
2018-12-14T02:48:30.224Z,40.60
2018-12-14T02:49:30.201Z,38.50
2018-12-14T02:50:30.174Z,40.60
2018-12-14T02:51:30.151Z,42.40
2018-12-14T02:52:30.127Z,40.90
2018-12-14T02:53:30.106Z,38.80
2018-12-14T02:54:30.078Z,38.10
2018-12-14T02:55:30.051Z,40.60
2018-12-14T02:56:30.030Z,41.40
2018-12-14T02:57:30.004Z,37.20
2018-12-14T02:58:29.979Z,39.20
2018-12-14T02:59:29.958Z,40.70
2018-12-14T03:00:29.931Z,40.40
2018-12-14T03:01:29.908Z,39.20
2018-12-14T03:02:29.883Z,39.40
2018-12-14T03:03:29.860Z,40.30
2018-12-14T03:04:29.837Z,39.20
2018-12-14T03:05:29.814Z,43.00
2018-12-14T03:06:29.787Z,42.10
2018-12-14T03:07:29.766Z,41.20
2018-12-14T03:08:29.738Z,42.40
2018-12-14T03:09:29.712Z,40.00
2018-12-14T03:10:29.689Z,42.40
2018-12-14T03:11:29.664Z,38.70
2018-12-14T03:12:29.655Z,40.10
2018-12-14T03:13:29.616Z,38.10
2018-12-14T03:14:29.592Z,40.20
2018-12-14T03:15:29.568Z,40.60
2018-12-14T03:16:29.548Z,42.00
2018-12-14T03:17:29.525Z,41.20
2018-12-14T03:18:29.500Z,36.80
2018-12-14T03:19:29.471Z,39.80
2018-12-14T03:20:29.451Z,40.40
2018-12-14T03:21:29.422Z,40.80
2018-12-14T03:22:29.405Z,36.50
2018-12-14T03:23:29.377Z,39.70
2018-12-14T03:24:29.358Z,40.70
2018-12-14T03:25:29.326Z,35.90
2018-12-14T03:26:29.304Z,39.60
2018-12-14T03:27:29.382Z,41.80
2018-12-14T03:28:29.259Z,41.40
2018-12-14T03:29:29.227Z,40.30
2018-12-14T03:30:29.206Z,38.70
2018-12-14T03:31:29.187Z,38.40
2018-12-14T03:32:29.160Z,39.50
2018-12-14T03:33:29.136Z,40.20
2018-12-14T03:34:29.107Z,37.00
2018-12-14T03:35:29.089Z,40.80
2018-12-14T03:36:29.063Z,38.70
2018-12-14T03:37:29.038Z,36.80
2018-12-14T03:38:29.012Z,38.80
2018-12-14T03:39:28.991Z,39.00
2018-12-14T03:40:28.968Z,41.60
2018-12-14T03:41:28.943Z,39.10
2018-12-14T03:42:34.226Z,39.90
2018-12-14T03:43:28.892Z,37.40
2018-12-14T03:44:28.868Z,41.00
2018-12-14T03:45:28.844Z,40.10
2018-12-14T03:46:28.824Z,40.00
2018-12-14T03:47:28.800Z,39.80
2018-12-14T03:48:28.772Z,39.90
2018-12-14T03:49:28.747Z,38.40
2018-12-14T03:50:28.765Z,40.30
2018-12-14T03:51:28.712Z,39.80
2018-12-14T03:52:28.678Z,39.40
2018-12-14T03:53:28.648Z,38.60
2018-12-14T03:54:28.628Z,39.90
2018-12-14T03:55:28.605Z,39.80
2018-12-14T03:56:28.587Z,40.90
2018-12-14T03:57:28.552Z,39.70
2018-12-14T03:58:28.530Z,37.10
2018-12-14T03:59:28.508Z,38.80
2018-12-14T04:00:28.486Z,36.10
2018-12-14T04:01:28.456Z,39.20
2018-12-14T04:02:28.436Z,38.10
2018-12-14T04:03:28.408Z,38.30
2018-12-14T04:04:28.384Z,39.40
2018-12-14T04:05:28.365Z,39.70
2018-12-14T04:06:28.339Z,38.40
2018-12-14T04:07:28.312Z,38.50
2018-12-14T04:08:28.288Z,40.70
2018-12-14T04:09:28.264Z,38.10
2018-12-14T04:10:28.243Z,39.10
2018-12-14T04:11:28.216Z,39.20
2018-12-14T04:12:28.191Z,41.10
2018-12-14T04:13:28.169Z,40.40
2018-12-14T04:14:28.144Z,38.30
2018-12-14T04:15:28.118Z,40.50
2018-12-14T04:16:28.097Z,38.50
2018-12-14T04:17:28.069Z,39.80
2018-12-14T04:18:28.045Z,40.10
2018-12-14T04:19:28.026Z,37.10
2018-12-14T04:20:27.998Z,38.10
2018-12-14T04:21:27.973Z,39.50
2018-12-14T04:22:27.952Z,39.10
2018-12-14T04:23:27.924Z,38.10
2018-12-14T04:24:27.903Z,42.00
2018-12-14T04:25:27.876Z,37.60
2018-12-14T04:26:27.855Z,35.00
2018-12-14T04:27:27.835Z,40.90
2018-12-14T04:28:27.804Z,37.40
2018-12-14T04:29:27.794Z,37.90
2018-12-14T04:30:27.755Z,38.30
2018-12-14T04:31:27.734Z,38.60
2018-12-14T04:32:27.709Z,38.80
2018-12-14T04:33:27.691Z,38.30
2018-12-14T04:34:27.660Z,38.80
2018-12-14T04:35:27.634Z,40.90
2018-12-14T04:36:27.610Z,39.30
2018-12-14T04:37:27.595Z,39.30
2018-12-14T04:38:27.562Z,40.20
2018-12-14T04:39:27.542Z,40.70
2018-12-14T04:40:27.514Z,38.60
2018-12-14T04:41:27.489Z,40.80
2018-12-14T04:42:27.465Z,40.60
2018-12-14T04:43:27.447Z,38.20
2018-12-14T04:44:27.547Z,41.00
2018-12-14T04:45:27.393Z,39.10
2018-12-14T04:46:27.371Z,37.90
2018-12-14T04:47:27.350Z,38.40
2018-12-14T04:48:27.321Z,41.10
2018-12-14T04:49:27.298Z,43.00
2018-12-14T04:50:27.279Z,41.10
2018-12-14T04:51:27.249Z,42.40
2018-12-14T04:52:27.224Z,39.80
2018-12-14T04:53:27.202Z,41.20
2018-12-14T04:54:27.175Z,39.70
2018-12-14T04:55:27.155Z,43.50
2018-12-14T04:56:27.127Z,39.80
2018-12-14T04:57:27.106Z,41.10
2018-12-14T04:58:27.079Z,40.70
2018-12-14T04:59:27.056Z,41.50
2018-12-14T05:00:27.030Z,41.00
2018-12-14T05:01:27.005Z,40.30
2018-12-14T05:02:26.982Z,40.70
2018-12-14T05:03:26.958Z,40.50
2018-12-14T05:04:26.934Z,43.90
2018-12-14T05:05:26.909Z,41.40
2018-12-14T05:06:26.889Z,41.60
2018-12-14T05:07:26.858Z,41.60
2018-12-14T05:08:26.841Z,40.80
2018-12-14T05:09:26.816Z,39.80
2018-12-14T05:10:26.792Z,42.30
2018-12-14T05:11:26.762Z,42.40
2018-12-14T05:12:26.736Z,44.40
2018-12-14T05:13:26.719Z,40.60
2018-12-14T05:14:26.690Z,40.90
2018-12-14T05:15:26.668Z,40.70
2018-12-14T05:16:26.644Z,66.70
2018-12-14T05:17:26.618Z,45.50
2018-12-14T05:18:26.593Z,51.20
2018-12-14T05:19:26.568Z,44.80
2018-12-14T05:20:26.545Z,44.70
2018-12-14T05:21:26.525Z,43.30
2018-12-14T05:22:26.496Z,42.00
2018-12-14T05:23:26.470Z,41.40
2018-12-14T05:24:26.452Z,41.20
2018-12-14T05:25:26.426Z,43.60
2018-12-14T05:26:26.399Z,40.90
2018-12-14T05:27:26.376Z,43.90
2018-12-14T05:28:26.359Z,41.70
2018-12-14T05:29:26.326Z,41.20
2018-12-14T05:30:26.312Z,39.20
2018-12-14T05:31:26.284Z,39.00
2018-12-14T05:32:26.257Z,38.10
2018-12-14T05:33:26.231Z,42.60
2018-12-14T05:34:26.203Z,39.50
2018-12-14T05:35:26.184Z,41.60
2018-12-14T05:36:26.168Z,39.00
2018-12-14T05:37:26.133Z,44.70
2018-12-14T05:38:26.105Z,39.80
2018-12-14T05:39:26.080Z,39.80
2018-12-14T05:40:26.062Z,41.60
2018-12-14T05:41:26.040Z,41.90
2018-12-14T05:42:26.005Z,39.40
2018-12-14T05:43:25.982Z,41.50
2018-12-14T05:44:25.963Z,58.50
2018-12-14T05:45:25.933Z,73.60
2018-12-14T05:46:25.910Z,44.20
2018-12-14T05:47:25.887Z,63.40
2018-12-14T05:48:25.929Z,46.30
2018-12-14T05:49:25.837Z,42.80
2018-12-14T05:50:25.813Z,42.30
2018-12-14T05:51:25.792Z,43.10
2018-12-14T05:52:25.770Z,43.40
2018-12-14T05:53:25.741Z,40.00
2018-12-14T05:54:25.715Z,42.60
2018-12-14T05:55:25.689Z,41.80
2018-12-14T05:56:25.664Z,40.80
2018-12-14T05:57:25.641Z,41.80
2018-12-14T05:58:26.017Z,42.40
2018-12-14T05:59:25.591Z,41.50
2018-12-14T06:00:25.568Z,42.90
2018-12-14T06:01:25.546Z,41.20
2018-12-14T06:02:25.519Z,40.00
2018-12-14T06:03:25.493Z,40.60
2018-12-14T06:04:25.482Z,40.00
2018-12-14T06:05:25.447Z,42.60
2018-12-14T06:06:25.424Z,40.00
2018-12-14T06:07:25.400Z,41.20
2018-12-14T06:08:25.371Z,42.00
2018-12-14T06:09:25.354Z,42.80
2018-12-14T06:10:25.326Z,40.70
2018-12-14T06:11:25.299Z,42.10
2018-12-14T06:12:25.275Z,41.50
2018-12-14T06:13:25.249Z,41.70
2018-12-14T06:14:25.226Z,41.60
2018-12-14T06:15:25.201Z,40.60
2018-12-14T06:16:25.181Z,41.80
2018-12-14T06:17:25.151Z,42.40
2018-12-14T06:18:25.129Z,41.30
2018-12-14T06:19:25.102Z,39.80
2018-12-14T06:20:25.075Z,43.80
2018-12-14T06:21:25.557Z,42.60
2018-12-14T06:22:25.028Z,40.00
2018-12-14T06:23:25.012Z,42.70
2018-12-14T06:24:24.979Z,40.00
2018-12-14T06:25:24.955Z,43.70
2018-12-14T06:26:24.930Z,41.50
2018-12-14T06:27:24.903Z,44.60
2018-12-14T06:28:26.023Z,40.90
2018-12-14T06:29:24.858Z,42.00
2018-12-14T06:30:24.832Z,40.50
2018-12-14T06:31:24.814Z,45.40
2018-12-14T06:32:24.779Z,41.50
2018-12-14T06:33:24.759Z,41.70
2018-12-14T06:34:24.735Z,42.50
2018-12-14T06:35:24.708Z,40.90
2018-12-14T06:36:24.683Z,43.30
2018-12-14T06:37:24.657Z,38.10
2018-12-14T06:38:24.633Z,43.20
2018-12-14T06:39:24.607Z,44.30
2018-12-14T06:40:24.583Z,40.70
2018-12-14T06:41:24.562Z,42.60
2018-12-14T06:42:24.532Z,39.40
2018-12-14T06:43:24.519Z,40.60
2018-12-14T06:44:24.485Z,41.40
2018-12-14T06:45:24.458Z,42.70
2018-12-14T06:46:24.436Z,41.10
2018-12-14T06:47:24.414Z,40.80
2018-12-14T06:48:24.388Z,42.40
2018-12-14T06:49:24.365Z,42.20
2018-12-14T06:50:24.337Z,39.50
2018-12-14T06:51:24.312Z,41.00
2018-12-14T06:52:24.292Z,39.20
2018-12-14T06:53:24.263Z,39.30
2018-12-14T06:54:24.238Z,38.80
2018-12-14T06:55:24.225Z,41.90
2018-12-14T06:56:24.189Z,40.30
2018-12-14T06:57:24.901Z,43.20
2018-12-14T06:58:24.143Z,40.70
2018-12-14T06:59:24.115Z,42.80
2018-12-14T07:00:24.091Z,38.10
2018-12-14T07:01:24.066Z,38.70
2018-12-14T07:02:24.043Z,41.40
2018-12-14T07:03:24.019Z,43.00
2018-12-14T07:04:23.999Z,43.60
2018-12-14T07:05:23.970Z,40.40
2018-12-14T07:06:23.943Z,42.70
2018-12-14T07:07:23.919Z,41.30
2018-12-14T07:08:23.896Z,39.80
2018-12-14T07:09:23.868Z,40.80
2018-12-14T07:10:23.847Z,41.00
2018-12-14T07:11:23.824Z,40.00
2018-12-14T07:12:23.798Z,41.80
2018-12-14T07:13:23.770Z,38.40
2018-12-14T07:14:23.748Z,41.20
2018-12-14T07:15:23.730Z,43.40
2018-12-14T07:16:23.696Z,44.10
2018-12-14T07:17:23.671Z,42.40
2018-12-14T07:18:23.650Z,40.20
2018-12-14T07:19:23.626Z,39.10
2018-12-14T07:20:23.600Z,41.20
2018-12-14T07:21:23.570Z,38.40
2018-12-14T07:22:23.548Z,41.10
2018-12-14T07:23:23.522Z,42.70
2018-12-14T07:24:23.502Z,41.30
2018-12-14T07:25:23.476Z,44.50
2018-12-14T07:26:23.455Z,40.90
2018-12-14T07:27:23.425Z,42.50
2018-12-14T07:28:23.401Z,41.80
2018-12-14T07:29:23.375Z,39.60
2018-12-14T07:30:23.351Z,39.90
2018-12-14T07:31:23.325Z,41.30
2018-12-14T07:32:23.302Z,40.40
2018-12-14T07:33:23.274Z,39.40
2018-12-14T07:34:23.252Z,42.50
2018-12-14T07:35:23.227Z,40.80
2018-12-14T07:36:23.203Z,41.30
2018-12-14T07:37:23.181Z,37.60
2018-12-14T07:38:23.153Z,41.80
2018-12-14T07:39:23.133Z,41.50
2018-12-14T07:40:23.103Z,41.30
2018-12-14T07:41:23.077Z,43.60
2018-12-14T07:42:23.059Z,44.40
2018-12-14T07:43:28.317Z,38.80
2018-12-14T07:44:23.082Z,43.50
2018-12-14T07:45:22.986Z,40.00
2018-12-14T07:46:22.958Z,40.10
2018-12-14T07:47:22.931Z,41.70
2018-12-14T07:48:22.915Z,41.70
2018-12-14T07:49:22.887Z,41.30
2018-12-14T07:50:22.863Z,43.80
2018-12-14T07:51:22.832Z,43.00
2018-12-14T07:52:22.809Z,43.30
2018-12-14T07:53:22.793Z,43.00
2018-12-14T07:54:22.768Z,41.80
2018-12-14T07:55:22.742Z,41.00
2018-12-14T07:56:22.710Z,41.50
2018-12-14T07:57:22.690Z,43.10
2018-12-14T07:58:22.673Z,39.50
2018-12-14T07:59:22.645Z,41.00
2018-12-14T08:00:22.617Z,41.00
2018-12-14T08:01:22.594Z,41.70
2018-12-14T08:02:22.564Z,41.60
2018-12-14T08:03:22.547Z,42.80
2018-12-14T08:04:22.520Z,40.40
2018-12-14T08:05:22.498Z,41.40
2018-12-14T08:06:22.470Z,40.10
2018-12-14T08:07:22.442Z,40.50
2018-12-14T08:08:22.423Z,40.00
2018-12-14T08:09:22.396Z,40.80
2018-12-14T08:10:22.372Z,37.90
2018-12-14T08:11:22.353Z,40.80
2018-12-14T08:12:22.327Z,44.20
2018-12-14T08:13:22.300Z,42.10
2018-12-14T08:14:22.270Z,40.30
2018-12-14T08:15:22.247Z,41.10
2018-12-14T08:16:22.222Z,42.20
2018-12-14T08:17:22.201Z,44.30
2018-12-14T08:18:22.173Z,45.00
2018-12-14T08:19:22.149Z,44.40
2018-12-14T08:20:22.132Z,44.80
2018-12-14T08:21:22.107Z,39.70
2018-12-14T08:22:22.081Z,43.40
2018-12-14T08:23:22.058Z,44.80
2018-12-14T08:24:22.027Z,44.90
2018-12-14T08:25:22.010Z,42.90
2018-12-14T08:26:21.983Z,44.80
2018-12-14T08:27:21.955Z,38.60
2018-12-14T08:28:21.932Z,40.70
2018-12-14T08:29:21.910Z,39.70
2018-12-14T08:30:21.882Z,40.30
2018-12-14T08:31:21.858Z,42.60
2018-12-14T08:32:21.834Z,42.60
2018-12-14T08:33:21.808Z,41.20
2018-12-14T08:34:21.793Z,42.10
2018-12-14T08:35:21.762Z,38.00
2018-12-14T08:36:21.739Z,35.60
2018-12-14T08:37:21.715Z,39.20
2018-12-14T08:38:21.718Z,38.50
2018-12-14T08:39:21.689Z,38.80
2018-12-14T08:40:21.649Z,36.30
2018-12-14T08:41:21.624Z,35.90
2018-12-14T08:42:21.611Z,34.10
2018-12-14T08:43:21.588Z,34.40
2018-12-14T08:44:21.572Z,33.60
2018-12-14T08:45:21.550Z,33.80
2018-12-14T08:46:21.515Z,34.40
2018-12-14T08:47:21.498Z,33.20
2018-12-14T08:48:21.477Z,33.10
2018-12-14T08:49:21.455Z,32.70
2018-12-14T08:50:21.440Z,33.60
2018-12-14T08:51:21.417Z,31.10
2018-12-14T08:52:21.396Z,33.40
2018-12-14T08:53:21.371Z,33.90
2018-12-14T08:54:21.354Z,33.20
2018-12-14T08:55:21.325Z,30.70
2018-12-14T08:56:21.307Z,33.00
2018-12-14T08:57:21.283Z,30.20
2018-12-14T08:58:21.263Z,31.30
2018-12-14T08:59:21.248Z,29.60
2018-12-14T09:00:21.227Z,31.30
2018-12-14T09:01:21.214Z,28.50
2018-12-14T09:02:21.194Z,43.30
2018-12-14T09:03:21.174Z,36.00
2018-12-14T09:04:21.156Z,29.70
2018-12-14T09:05:21.132Z,28.90
2018-12-14T09:06:21.116Z,27.00
2018-12-14T09:07:24.489Z,27.20
2018-12-14T09:08:21.087Z,27.30
2018-12-14T09:09:21.065Z,26.00
2018-12-14T09:10:21.055Z,27.40
2018-12-14T09:11:21.031Z,26.60
2018-12-14T09:12:21.017Z,26.40
2018-12-14T09:13:21.000Z,27.60
2018-12-14T09:14:20.985Z,27.60
2018-12-14T09:15:20.967Z,26.50
2018-12-14T09:16:20.961Z,27.80
2018-12-14T09:17:20.939Z,27.00
2018-12-14T09:18:20.921Z,27.60
2018-12-14T09:19:20.909Z,26.70
2018-12-14T09:20:20.891Z,26.90
2018-12-14T09:21:20.877Z,27.50
2018-12-14T09:22:20.869Z,26.30
2018-12-14T09:23:20.845Z,26.30
2018-12-14T09:24:20.831Z,26.40
2018-12-14T09:25:20.818Z,26.00
2018-12-14T09:26:20.802Z,26.70
2018-12-14T09:27:20.789Z,25.80
2018-12-14T09:28:20.773Z,26.00
2018-12-14T09:29:20.767Z,25.50
2018-12-14T09:30:20.746Z,25.50
2018-12-14T09:31:20.733Z,27.10
2018-12-14T09:32:20.727Z,24.90
2018-12-14T09:33:20.708Z,25.90
2018-12-14T09:34:20.692Z,25.60
2018-12-14T09:35:20.678Z,24.70
2018-12-14T09:36:20.663Z,24.90
2018-12-14T09:37:20.650Z,25.80
2018-12-14T09:38:20.642Z,25.90
2018-12-14T09:39:20.630Z,25.10
2018-12-14T09:40:20.622Z,24.90
2018-12-14T09:41:20.596Z,24.20
2018-12-14T09:42:20.586Z,23.60
2018-12-14T09:43:20.572Z,24.20
2018-12-14T09:44:20.567Z,23.50
2018-12-14T09:45:20.544Z,24.80
2018-12-14T09:46:20.526Z,23.50
2018-12-14T09:47:20.509Z,23.90
2018-12-14T09:48:20.503Z,24.00
2018-12-14T09:49:20.479Z,24.40
2018-12-14T09:50:20.469Z,24.50
2018-12-14T09:51:20.457Z,23.90
2018-12-14T09:52:20.444Z,24.60
2018-12-14T09:53:20.427Z,25.40
2018-12-14T09:54:20.409Z,24.40
2018-12-14T09:55:20.402Z,27.60
2018-12-14T09:56:20.377Z,26.70
2018-12-14T09:57:20.368Z,25.20
2018-12-14T09:58:20.348Z,22.00
2018-12-14T09:59:20.335Z,23.50
2018-12-14T10:00:20.322Z,24.20
2018-12-14T10:01:20.305Z,23.30
2018-12-14T10:02:20.297Z,23.40
2018-12-14T10:03:20.277Z,24.00
2018-12-14T10:04:20.262Z,23.20
2018-12-14T10:05:20.246Z,25.90
2018-12-14T10:06:20.233Z,25.50
2018-12-14T10:07:20.235Z,22.20
2018-12-14T10:08:20.204Z,21.90
2018-12-14T10:09:20.192Z,21.90
2018-12-14T10:10:20.176Z,22.00
2018-12-14T10:11:20.162Z,21.70
2018-12-14T10:12:20.147Z,22.90
2018-12-14T10:13:20.135Z,21.20
2018-12-14T10:14:20.121Z,22.20
2018-12-14T10:15:20.109Z,21.60
2018-12-14T10:16:20.101Z,22.80
2018-12-14T10:17:21.566Z,20.20
2018-12-14T10:18:20.067Z,20.00
2018-12-14T10:19:20.055Z,22.80
2018-12-14T10:20:20.045Z,20.90
2018-12-14T10:21:20.028Z,19.90
2018-12-14T10:22:20.021Z,20.50
2018-12-14T10:23:20.003Z,21.80
2018-12-14T10:24:19.987Z,19.30
2018-12-14T10:25:19.971Z,19.60
2018-12-14T10:26:19.955Z,21.40
2018-12-14T10:27:19.940Z,21.70
2018-12-14T10:28:19.927Z,20.50
2018-12-14T10:29:19.907Z,21.10
2018-12-14T10:30:19.897Z,23.20
2018-12-14T10:31:19.875Z,24.80
2018-12-14T10:32:19.856Z,21.50
2018-12-14T10:33:19.984Z,21.10
2018-12-14T10:34:19.819Z,36.30
2018-12-14T10:35:19.803Z,22.10
2018-12-14T10:36:19.784Z,22.70
2018-12-14T10:37:19.765Z,22.20
2018-12-14T10:38:19.749Z,20.20
2018-12-14T10:39:19.727Z,21.40
2018-12-14T10:40:19.707Z,20.80
2018-12-14T10:41:19.691Z,22.00
2018-12-14T10:42:19.672Z,23.70
2018-12-14T10:43:19.651Z,20.90
2018-12-14T10:44:19.631Z,21.90
2018-12-14T10:45:19.614Z,22.50
2018-12-14T10:46:19.591Z,22.40
2018-12-14T10:47:19.572Z,21.50
2018-12-14T10:48:19.557Z,21.80
2018-12-14T10:49:19.531Z,21.80
2018-12-14T10:50:19.511Z,22.50
2018-12-14T10:51:19.491Z,20.50
2018-12-14T10:52:19.471Z,22.70
2018-12-14T10:53:19.462Z,21.60
2018-12-14T10:54:19.435Z,21.00
2018-12-14T10:55:19.408Z,21.40
2018-12-14T10:56:19.391Z,20.30
2018-12-14T10:57:19.371Z,20.30
2018-12-14T10:58:20.453Z,21.90
2018-12-14T10:59:19.426Z,23.00
2018-12-14T11:00:19.307Z,22.40
2018-12-14T11:01:19.347Z,22.50
2018-12-14T11:02:19.267Z,29.10
2018-12-14T11:03:19.258Z,23.40
2018-12-14T11:04:19.226Z,22.70
2018-12-14T11:05:19.208Z,22.30
2018-12-14T11:06:19.182Z,21.80
2018-12-14T11:07:19.159Z,22.20
2018-12-14T11:08:19.138Z,21.80
2018-12-14T11:09:19.117Z,20.50
2018-12-14T11:10:19.105Z,21.20
2018-12-14T11:11:19.077Z,22.40
2018-12-14T11:12:19.057Z,22.20
2018-12-14T11:13:19.041Z,22.70
2018-12-14T11:14:19.014Z,21.70
2018-12-14T11:15:18.993Z,22.40
2018-12-14T11:16:18.980Z,21.30
2018-12-14T11:17:18.949Z,22.80
2018-12-14T11:18:18.929Z,22.20
2018-12-14T11:19:18.904Z,23.00
2018-12-14T11:20:18.882Z,22.30
2018-12-14T11:21:18.864Z,24.00
2018-12-14T11:22:18.839Z,22.20
2018-12-14T11:23:18.817Z,22.40
2018-12-14T11:24:18.797Z,20.20
2018-12-14T11:25:18.773Z,22.50
2018-12-14T11:26:18.753Z,21.90
2018-12-14T11:27:18.731Z,22.00
2018-12-14T11:28:18.711Z,23.50
2018-12-14T11:29:18.689Z,21.40
2018-12-14T11:30:18.675Z,22.00
2018-12-14T11:31:18.649Z,22.70
2018-12-14T11:32:18.623Z,22.80
2018-12-14T11:33:18.603Z,26.00
2018-12-14T11:34:18.580Z,21.20
2018-12-14T11:35:18.563Z,22.40
2018-12-14T11:36:18.540Z,24.90
2018-12-14T11:37:18.522Z,20.90
2018-12-14T11:38:18.492Z,21.60
2018-12-14T11:39:18.485Z,22.00
2018-12-14T11:40:18.451Z,23.40
2018-12-14T11:41:18.760Z,22.70
2018-12-14T11:42:18.410Z,24.20
2018-12-14T11:43:18.383Z,25.10
2018-12-14T11:44:21.276Z,22.30
2018-12-14T11:45:18.342Z,23.50
2018-12-14T11:46:18.325Z,22.90
2018-12-14T11:47:18.442Z,22.30
2018-12-14T11:48:18.279Z,23.30
2018-12-14T11:49:18.258Z,24.50
2018-12-14T11:50:18.235Z,22.40
2018-12-14T11:51:18.213Z,21.90
2018-12-14T11:52:18.191Z,22.80
2018-12-14T11:53:18.173Z,24.70
2018-12-14T11:54:18.145Z,28.50
2018-12-14T11:55:18.123Z,27.80
2018-12-14T11:56:18.103Z,24.20
2018-12-14T11:57:18.078Z,23.80
2018-12-14T11:58:18.056Z,22.90
2018-12-14T11:59:18.034Z,22.60
2018-12-14T12:00:18.019Z,24.20
2018-12-14T12:01:17.993Z,22.00
2018-12-14T12:02:17.982Z,23.40
2018-12-14T12:03:17.957Z,22.00
2018-12-14T12:04:17.928Z,24.30
2018-12-14T12:05:17.910Z,24.30
2018-12-14T12:06:17.891Z,24.10
2018-12-14T12:07:17.875Z,23.70
2018-12-14T12:08:17.840Z,22.20
2018-12-14T12:09:17.825Z,23.40
2018-12-14T12:10:17.795Z,21.80
2018-12-14T12:11:17.771Z,25.00
2018-12-14T12:12:17.755Z,25.70
2018-12-14T12:13:17.738Z,23.90
2018-12-14T12:14:17.708Z,22.50
2018-12-14T12:15:17.687Z,22.50
2018-12-14T12:16:17.665Z,23.70
2018-12-14T12:17:17.641Z,23.30
2018-12-14T12:18:17.623Z,24.70
2018-12-14T12:19:17.603Z,24.40
2018-12-14T12:20:17.574Z,24.00
2018-12-14T12:21:17.550Z,23.40
2018-12-14T12:22:17.534Z,24.00
2018-12-14T12:23:17.510Z,22.10
2018-12-14T12:24:17.486Z,22.60
2018-12-14T12:25:17.465Z,22.20
2018-12-14T12:26:17.442Z,22.20
2018-12-14T12:27:18.462Z,23.30
2018-12-14T12:28:17.397Z,24.10
2018-12-14T12:29:17.376Z,21.70
2018-12-14T12:30:17.355Z,23.20
2018-12-14T12:31:17.340Z,22.00
2018-12-14T12:32:17.309Z,21.90
2018-12-14T12:33:17.288Z,21.40
2018-12-14T12:34:17.277Z,22.00
2018-12-14T12:35:17.244Z,23.50
2018-12-14T12:36:17.225Z,22.30
2018-12-14T12:37:17.205Z,20.90
2018-12-14T12:38:17.181Z,23.20
2018-12-14T12:39:17.155Z,21.90
2018-12-14T12:40:17.139Z,21.50
2018-12-14T12:41:17.118Z,24.20
2018-12-14T12:42:17.088Z,24.10
2018-12-14T12:43:17.072Z,23.00
2018-12-14T12:44:17.046Z,22.80
2018-12-14T12:45:17.024Z,22.10
2018-12-14T12:46:17.009Z,21.90
2018-12-14T12:47:16.979Z,22.80
2018-12-14T12:48:16.958Z,22.70
2018-12-14T12:49:16.934Z,22.40
2018-12-14T12:50:16.917Z,22.10
2018-12-14T12:51:16.895Z,22.70
2018-12-14T12:52:16.871Z,24.20